createdAt,value
2019-02-11T00:00:11.505Z,2.8
2019-02-11T00:01:11.481Z,2.85
2019-02-11T00:02:11.467Z,2.83
2019-02-11T00:03:11.451Z,2.81
2019-02-11T00:04:11.445Z,2.76
2019-02-11T00:05:11.166Z,2.84
2019-02-11T00:06:11.399Z,2.87
2019-02-11T00:07:11.378Z,2.87
2019-02-11T00:08:11.371Z,2.87
2019-02-11T00:09:11.348Z,2.78
2019-02-11T00:10:11.342Z,2.96
2019-02-11T00:11:11.073Z,2.98
2019-02-11T00:12:11.293Z,2.88
2019-02-11T00:13:15.648Z,2.93
2019-02-11T00:14:11.265Z,2.93
2019-02-11T00:15:11.296Z,2.87
2019-02-11T00:16:11.227Z,2.91
2019-02-11T00:17:11.212Z,2.96
2019-02-11T00:18:11.192Z,2.85
2019-02-11T00:19:11.469Z,2.93
2019-02-11T00:20:11.167Z,2.88
2019-02-11T00:21:11.141Z,2.91
2019-02-11T00:22:10.625Z,2.91
2019-02-11T00:23:11.108Z,2.88
2019-02-11T00:24:11.088Z,2.83
2019-02-11T00:25:11.071Z,2.88
2019-02-11T00:26:11.065Z,2.88
2019-02-11T00:27:11.043Z,2.84
2019-02-11T00:28:11.032Z,2.85
2019-02-11T00:29:11.000Z,2.91
2019-02-11T00:30:10.982Z,2.81
2019-02-11T00:31:11.067Z,2.81
2019-02-11T00:32:10.951Z,2.8
2019-02-11T00:33:10.935Z,2.77
2019-02-11T00:34:10.922Z,2.81
2019-02-11T00:35:10.901Z,2.8
2019-02-11T00:36:10.880Z,2.81
2019-02-11T00:37:10.861Z,2.8
2019-02-11T00:38:10.600Z,2.83
2019-02-11T00:39:17.101Z,2.78
2019-02-11T00:40:10.578Z,2.76
2019-02-11T00:41:10.798Z,2.73
2019-02-11T00:42:10.787Z,2.67
2019-02-11T00:43:18.621Z,2.66
2019-02-11T00:44:10.747Z,2.69
2019-02-11T00:45:10.493Z,2.72
2019-02-11T00:46:10.711Z,2.66
2019-02-11T00:47:10.700Z,2.7
2019-02-11T00:48:12.040Z,2.76
2019-02-11T00:49:10.660Z,2.72
2019-02-11T00:50:10.644Z,2.69
2019-02-11T00:51:10.625Z,2.76
2019-02-11T00:52:10.618Z,2.72
2019-02-11T00:53:10.590Z,2.81
2019-02-11T00:54:10.577Z,2.78
2019-02-11T00:55:10.556Z,2.73
2019-02-11T00:56:10.542Z,2.84
2019-02-11T00:57:10.524Z,2.69
2019-02-11T00:58:10.509Z,2.72
2019-02-11T00:59:10.491Z,2.72
2019-02-11T01:00:10.471Z,2.63
2019-02-11T01:01:10.456Z,2.69
2019-02-11T01:02:10.453Z,2.65
2019-02-11T01:03:10.422Z,2.69
2019-02-11T01:04:10.406Z,2.78
2019-02-11T01:05:10.396Z,2.66
2019-02-11T01:06:10.574Z,2.65
2019-02-11T01:07:10.362Z,2.65
2019-02-11T01:08:10.333Z,2.69
2019-02-11T01:09:10.071Z,2.63
2019-02-11T01:10:10.303Z,2.6
2019-02-11T01:11:10.282Z,2.62
2019-02-11T01:12:10.261Z,2.58
2019-02-11T01:13:10.247Z,2.55
2019-02-11T01:14:09.978Z,2.55
2019-02-11T01:15:10.210Z,2.52
2019-02-11T01:16:10.197Z,2.55
2019-02-11T01:17:09.681Z,2.54
2019-02-11T01:18:10.162Z,2.55
2019-02-11T01:19:10.140Z,2.62
2019-02-11T01:20:10.144Z,2.55
2019-02-11T01:21:10.128Z,2.59
2019-02-11T01:22:09.595Z,2.58
2019-02-11T01:23:10.077Z,2.54
2019-02-11T01:24:09.558Z,2.51
2019-02-11T01:25:10.038Z,2.6
2019-02-11T01:26:10.021Z,2.55
2019-02-11T01:27:10.005Z,2.59
2019-02-11T01:28:09.997Z,2.51
2019-02-11T01:29:09.967Z,2.54
2019-02-11T01:30:09.709Z,2.55
2019-02-11T01:31:09.932Z,2.55
2019-02-11T01:32:09.924Z,2.6
2019-02-11T01:33:09.900Z,2.59
2019-02-11T01:34:09.881Z,2.59
2019-02-11T01:35:09.864Z,2.51
2019-02-11T01:36:09.845Z,2.51
2019-02-11T01:37:09.829Z,2.45
2019-02-11T01:38:09.814Z,2.44
2019-02-11T01:39:09.793Z,2.45
2019-02-11T01:40:09.529Z,2.48
2019-02-11T01:41:09.757Z,2.42
2019-02-11T01:42:09.801Z,2.36
2019-02-11T01:43:09.726Z,2.41
2019-02-11T01:44:09.707Z,2.48
2019-02-11T01:45:09.695Z,2.45
2019-02-11T01:46:09.682Z,2.33
2019-02-11T01:47:09.410Z,2.44
2019-02-11T01:48:09.389Z,2.42
2019-02-11T01:49:09.375Z,2.4
2019-02-11T01:50:09.600Z,2.31
2019-02-11T01:51:09.591Z,2.4
2019-02-11T01:52:09.328Z,2.41
2019-02-11T01:53:09.551Z,2.31
2019-02-11T01:54:09.531Z,2.33
2019-02-11T01:55:09.264Z,2.34
2019-02-11T01:56:09.496Z,2.38
2019-02-11T01:57:09.229Z,2.3
2019-02-11T01:58:09.462Z,2.36
2019-02-11T01:59:09.198Z,2.31
2019-02-11T02:00:09.433Z,2.36
2019-02-11T02:01:09.414Z,2.3
2019-02-11T02:02:09.146Z,2.31
2019-02-11T02:03:09.378Z,2.29
2019-02-11T02:04:09.361Z,2.3
2019-02-11T02:05:09.341Z,2.33
2019-02-11T02:06:09.342Z,2.2
2019-02-11T02:07:09.302Z,2.23
2019-02-11T02:08:09.296Z,2.23
2019-02-11T02:09:09.269Z,2.16
2019-02-11T02:10:09.254Z,2.16
2019-02-11T02:11:09.233Z,2.13
2019-02-11T02:12:09.216Z,2.13
2019-02-11T02:13:09.203Z,2.15
2019-02-11T02:14:09.183Z,2.16
2019-02-11T02:15:09.167Z,2.16
2019-02-11T02:16:09.145Z,2.15
2019-02-11T02:17:08.885Z,2.16
2019-02-11T02:18:09.114Z,2.04
2019-02-11T02:19:09.097Z,2.05
2019-02-11T02:20:09.072Z,2.13
2019-02-11T02:21:08.811Z,1.98
2019-02-11T02:22:09.038Z,1.93
2019-02-11T02:23:08.527Z,1.92
2019-02-11T02:24:09.001Z,1.9
2019-02-11T02:25:08.994Z,1.87
2019-02-11T02:26:08.967Z,1.84
2019-02-11T02:27:09.260Z,1.89
2019-02-11T02:28:08.930Z,1.86
2019-02-11T02:29:08.913Z,1.87
2019-02-11T02:30:08.911Z,1.83
2019-02-11T02:31:08.880Z,1.87
2019-02-11T02:32:08.862Z,1.76
2019-02-11T02:33:08.841Z,1.74
2019-02-11T02:34:08.823Z,1.69
2019-02-11T02:35:08.557Z,1.72
2019-02-11T02:36:08.799Z,1.76
2019-02-11T02:37:08.770Z,1.75
2019-02-11T02:38:08.809Z,1.72
2019-02-11T02:39:08.745Z,1.58
2019-02-11T02:40:08.725Z,1.72
2019-02-11T02:41:08.719Z,1.64
2019-02-11T02:42:08.438Z,1.65
2019-02-11T02:43:08.673Z,1.6
2019-02-11T02:44:08.643Z,1.66
2019-02-11T02:45:08.639Z,1.65
2019-02-11T02:46:08.622Z,1.64
2019-02-11T02:47:08.599Z,1.54
2019-02-11T02:48:08.587Z,1.51
2019-02-11T02:49:08.560Z,1.58
2019-02-11T02:50:08.539Z,1.58
2019-02-11T02:51:08.520Z,1.57
2019-02-11T02:52:08.258Z,1.57
2019-02-11T02:53:08.488Z,1.54
2019-02-11T02:54:08.477Z,1.48
2019-02-11T02:55:08.467Z,1.58
2019-02-11T02:56:08.437Z,1.48
2019-02-11T02:57:08.413Z,1.42
2019-02-11T02:58:08.426Z,1.57
2019-02-11T02:59:08.381Z,1.48
2019-02-11T03:00:08.361Z,1.51
2019-02-11T03:01:08.339Z,1.46
2019-02-11T03:02:08.076Z,1.56
2019-02-11T03:03:08.308Z,1.48
2019-02-11T03:04:08.290Z,1.53
2019-02-11T03:05:08.264Z,1.47
2019-02-11T03:06:08.014Z,1.39
2019-02-11T03:07:08.227Z,1.36
2019-02-11T03:08:08.225Z,1.47
2019-02-11T03:09:08.197Z,1.47
2019-02-11T03:10:08.186Z,1.48
2019-02-11T03:11:08.159Z,1.4
2019-02-11T03:12:08.142Z,1.4
2019-02-11T03:13:09.862Z,1.42
2019-02-11T03:14:10.693Z,1.46
2019-02-11T03:15:08.088Z,1.36
2019-02-11T03:16:07.833Z,1.44
2019-02-11T03:17:07.813Z,1.44
2019-02-11T03:18:08.074Z,1.39
2019-02-11T03:19:08.027Z,1.42
2019-02-11T03:20:07.993Z,1.39
2019-02-11T03:21:07.987Z,1.47
2019-02-11T03:22:07.964Z,1.38
2019-02-11T03:23:07.936Z,1.39
2019-02-11T03:24:07.921Z,1.33
2019-02-11T03:25:07.904Z,1.4
2019-02-11T03:26:07.892Z,1.42
2019-02-11T03:27:07.868Z,1.46
2019-02-11T03:28:07.849Z,1.36
2019-02-11T03:29:07.574Z,1.33
2019-02-11T03:30:07.822Z,1.44
2019-02-11T03:31:07.828Z,1.38
2019-02-11T03:32:07.785Z,1.33
2019-02-11T03:33:07.814Z,1.39
2019-02-11T03:34:07.745Z,1.4
2019-02-11T03:35:07.725Z,1.36
2019-02-11T03:36:07.705Z,1.42
2019-02-11T03:37:07.432Z,1.4
2019-02-11T03:38:07.661Z,1.47
2019-02-11T03:39:07.647Z,1.42
2019-02-11T03:40:07.629Z,1.38
2019-02-11T03:41:07.608Z,1.4
2019-02-11T03:42:07.595Z,1.4
2019-02-11T03:43:07.724Z,1.29
2019-02-11T03:44:17.206Z,1.38
2019-02-11T03:45:07.531Z,1.35
2019-02-11T03:46:07.510Z,1.24
2019-02-11T03:47:07.498Z,1.33
2019-02-11T03:48:07.484Z,1.29
2019-02-11T03:49:07.209Z,1.32
2019-02-11T03:50:07.443Z,1.32
2019-02-11T03:51:07.422Z,1.28
2019-02-11T03:52:07.412Z,1.33
2019-02-11T03:53:07.386Z,1.24
2019-02-11T03:54:07.410Z,1.26
2019-02-11T03:55:07.354Z,1.24
2019-02-11T03:56:07.090Z,1.15
2019-02-11T03:57:07.308Z,1.24
2019-02-11T03:58:07.196Z,1.24
2019-02-11T03:59:07.278Z,1.18
2019-02-11T04:00:07.273Z,1.15
2019-02-11T04:01:07.340Z,1.21
2019-02-11T04:02:07.224Z,1.17
2019-02-11T04:03:06.956Z,1.07
2019-02-11T04:04:07.180Z,1.17
2019-02-11T04:05:07.167Z,1.18
2019-02-11T04:06:07.151Z,1.12
2019-02-11T04:07:07.164Z,1.17
2019-02-11T04:08:07.111Z,1.14
2019-02-11T04:09:07.087Z,1.17
2019-02-11T04:10:07.078Z,1.12
2019-02-11T04:11:07.055Z,1.12
2019-02-11T04:12:07.042Z,1.11
2019-02-11T04:13:07.019Z,1.15
2019-02-11T04:14:07.011Z,1.12
2019-02-11T04:15:06.981Z,1.11
2019-02-11T04:16:06.959Z,1.08
2019-02-11T04:17:06.945Z,1.11
2019-02-11T04:18:06.679Z,1.14
2019-02-11T04:19:06.911Z,1
2019-02-11T04:20:06.906Z,1.03
2019-02-11T04:21:06.865Z,1.11
2019-02-11T04:22:06.845Z,1.03
2019-02-11T04:23:06.830Z,1
2019-02-11T04:24:06.567Z,1.1
2019-02-11T04:25:06.814Z,1.12
2019-02-11T04:26:06.782Z,1.1
2019-02-11T04:27:06.503Z,1.02
2019-02-11T04:28:06.735Z,1.11
2019-02-11T04:29:06.719Z,1.07
2019-02-11T04:30:06.719Z,1.07
2019-02-11T04:31:06.674Z,1.1
2019-02-11T04:32:06.675Z,0.97
2019-02-11T04:33:06.391Z,1.11
2019-02-11T04:34:06.619Z,1.03
2019-02-11T04:35:06.619Z,0.96
2019-02-11T04:36:06.582Z,1.1
2019-02-11T04:37:06.563Z,1.02
2019-02-11T04:38:06.548Z,0.99
2019-02-11T04:39:06.531Z,1.03
2019-02-11T04:40:06.562Z,0.99
2019-02-11T04:41:06.490Z,1.07
2019-02-11T04:42:06.471Z,1.08
2019-02-11T04:43:06.449Z,1.17
2019-02-11T04:44:06.434Z,1.07
2019-02-11T04:45:06.165Z,1.04
2019-02-11T04:46:06.143Z,1.04
2019-02-11T04:47:06.393Z,1
2019-02-11T04:48:06.358Z,1.08
2019-02-11T04:49:06.343Z,1.12
2019-02-11T04:50:06.328Z,1.14
2019-02-11T04:51:06.298Z,1.1
2019-02-11T04:52:06.292Z,1.08
2019-02-11T04:53:06.263Z,1.1
2019-02-11T04:54:06.262Z,1.11
2019-02-11T04:55:06.229Z,1.14
2019-02-11T04:56:06.209Z,1.07
2019-02-11T04:57:06.189Z,1.1
2019-02-11T04:58:06.178Z,1.15
2019-02-11T04:59:06.153Z,1.11
2019-02-11T05:00:06.154Z,1.15
2019-02-11T05:01:05.867Z,1.11
2019-02-11T05:02:06.105Z,1.11
2019-02-11T05:03:06.076Z,1.17
2019-02-11T05:04:06.067Z,1.14
2019-02-11T05:05:06.046Z,1.12
2019-02-11T05:06:06.025Z,1.11
2019-02-11T05:07:06.016Z,1.17
2019-02-11T05:08:05.982Z,1.15
2019-02-11T05:09:05.730Z,1.15
2019-02-11T05:10:06.026Z,1.2
2019-02-11T05:11:05.937Z,1.15
2019-02-11T05:12:05.907Z,1.2
2019-02-11T05:13:05.897Z,1.18
2019-02-11T05:14:05.884Z,1.18
2019-02-11T05:15:05.862Z,1.26
2019-02-11T05:16:05.841Z,1.21
2019-02-11T05:17:05.820Z,1.21
2019-02-11T05:18:05.804Z,1.29
2019-02-11T05:19:05.782Z,1.21
2019-02-11T05:20:05.763Z,1.22
2019-02-11T05:21:05.868Z,1.21
2019-02-11T05:22:05.730Z,1.26
2019-02-11T05:23:05.713Z,1.17
2019-02-11T05:24:05.695Z,1.18
2019-02-11T05:25:05.672Z,1.26
2019-02-11T05:26:05.654Z,1.22
2019-02-11T05:27:05.655Z,1.22
2019-02-11T05:28:05.630Z,1.2
2019-02-11T05:29:05.594Z,1.18
2019-02-11T05:30:05.582Z,1.26
2019-02-11T05:31:05.558Z,1.29
2019-02-11T05:32:05.538Z,1.28
2019-02-11T05:33:05.680Z,1.3
2019-02-11T05:34:05.501Z,1.26
2019-02-11T05:35:05.517Z,1.29
2019-02-11T05:36:05.220Z,1.29
2019-02-11T05:37:05.449Z,1.29
2019-02-11T05:38:05.433Z,1.29
2019-02-11T05:39:05.428Z,1.29
2019-02-11T05:40:05.417Z,1.3
2019-02-11T05:41:05.383Z,1.29
2019-02-11T05:42:05.116Z,1.21
2019-02-11T05:43:05.337Z,1.24
2019-02-11T05:44:05.975Z,1.24
2019-02-11T05:45:05.308Z,1.26
2019-02-11T05:46:05.277Z,1.3
2019-02-11T05:47:05.024Z,1.33
2019-02-11T05:48:04.998Z,1.35
2019-02-11T05:49:05.287Z,1.35
2019-02-11T05:50:05.244Z,1.32
2019-02-11T05:51:05.200Z,1.35
2019-02-11T05:52:05.180Z,1.36
2019-02-11T05:53:04.901Z,1.29
2019-02-11T05:54:05.141Z,1.29
2019-02-11T05:55:04.883Z,1.35
2019-02-11T05:56:05.097Z,1.33
2019-02-11T05:57:05.087Z,1.32
2019-02-11T05:58:05.125Z,1.32
2019-02-11T05:59:05.043Z,1.39
2019-02-11T06:00:05.256Z,1.21
2019-02-11T06:01:05.012Z,1.33
2019-02-11T06:02:04.987Z,1.36
2019-02-11T06:03:04.979Z,1.24
2019-02-11T06:04:04.702Z,1.33
2019-02-11T06:05:05.167Z,1.36
2019-02-11T06:06:04.675Z,1.24
2019-02-11T06:07:04.905Z,1.26
2019-02-11T06:08:04.632Z,1.26
2019-02-11T06:09:04.858Z,1.33
2019-02-11T06:10:04.693Z,1.39
2019-02-11T06:11:04.580Z,1.24
2019-02-11T06:12:04.801Z,1.39
2019-02-11T06:13:04.539Z,1.32
2019-02-11T06:14:04.531Z,1.33
2019-02-11T06:15:09.482Z,1.36
2019-02-11T06:16:04.729Z,1.36
2019-02-11T06:17:04.716Z,1.33
2019-02-11T06:18:04.689Z,1.26
2019-02-11T06:19:04.673Z,1.3
2019-02-11T06:20:04.408Z,1.26
2019-02-11T06:21:04.640Z,1.24
2019-02-11T06:22:04.617Z,1.32
2019-02-11T06:23:04.606Z,1.29
2019-02-11T06:24:04.590Z,1.29
2019-02-11T06:25:04.566Z,1.3
2019-02-11T06:26:04.565Z,1.29
2019-02-11T06:27:04.528Z,1.18
2019-02-11T06:28:04.507Z,1.21
2019-02-11T06:29:04.247Z,1.2
2019-02-11T06:30:04.473Z,1.18
2019-02-11T06:31:04.454Z,1.2
2019-02-11T06:32:04.430Z,1.18
2019-02-11T06:33:04.414Z,1.22
2019-02-11T06:34:04.153Z,1.21
2019-02-11T06:35:04.381Z,1.22
2019-02-11T06:36:14.107Z,1.18
2019-02-11T06:37:04.363Z,1.15
2019-02-11T06:38:04.379Z,1.26
2019-02-11T06:39:04.310Z,1.2
2019-02-11T06:40:04.315Z,1.28
2019-02-11T06:41:04.326Z,1.26
2019-02-11T06:42:04.250Z,1.28
2019-02-11T06:43:03.981Z,1.32
2019-02-11T06:44:04.213Z,1.32
2019-02-11T06:45:12.434Z,1.24
2019-02-11T06:46:04.178Z,1.21
2019-02-11T06:47:04.171Z,1.36
2019-02-11T06:48:04.135Z,1.26
2019-02-11T06:49:04.120Z,1.28
2019-02-11T06:50:03.856Z,1.38
2019-02-11T06:51:04.151Z,1.4
2019-02-11T06:52:04.063Z,1.42
2019-02-11T06:53:04.049Z,1.38
2019-02-11T06:54:03.776Z,1.39
2019-02-11T06:55:04.014Z,1.38
2019-02-11T06:56:04.002Z,1.4
2019-02-11T06:57:04.316Z,1.42
2019-02-11T06:58:03.951Z,1.36
2019-02-11T06:59:03.932Z,1.36
2019-02-11T07:00:03.918Z,1.51
2019-02-11T07:01:03.905Z,1.51
2019-02-11T07:02:03.929Z,1.53
2019-02-11T07:03:03.861Z,1.46
2019-02-11T07:04:03.841Z,1.5
2019-02-11T07:05:03.825Z,1.56
2019-02-11T07:06:03.813Z,1.54
2019-02-11T07:07:03.786Z,1.47
2019-02-11T07:08:03.768Z,1.46
2019-02-11T07:09:03.745Z,1.56
2019-02-11T07:10:03.734Z,1.48
2019-02-11T07:11:03.468Z,1.51
2019-02-11T07:12:03.745Z,1.5
2019-02-11T07:13:03.675Z,1.56
2019-02-11T07:14:03.658Z,1.53
2019-02-11T07:15:03.639Z,1.57
2019-02-11T07:16:03.619Z,1.61
2019-02-11T07:17:03.650Z,1.58
2019-02-11T07:18:03.580Z,1.57
2019-02-11T07:19:03.316Z,1.58
2019-02-11T07:20:03.544Z,1.65
2019-02-11T07:21:03.542Z,1.6
2019-02-11T07:22:03.510Z,1.6
2019-02-11T07:23:03.314Z,1.64
2019-02-11T07:24:03.474Z,1.68
2019-02-11T07:25:03.209Z,1.64
2019-02-11T07:26:03.437Z,1.66
2019-02-11T07:27:03.417Z,1.61
2019-02-11T07:28:03.402Z,1.64
2019-02-11T07:29:03.379Z,1.64
2019-02-11T07:30:03.370Z,1.68
2019-02-11T07:31:03.344Z,1.71
2019-02-11T07:32:03.327Z,1.76
2019-02-11T07:33:03.313Z,1.68
2019-02-11T07:34:03.301Z,1.68
2019-02-11T07:35:03.275Z,1.6
2019-02-11T07:36:03.259Z,1.64
2019-02-11T07:37:02.990Z,1.56
2019-02-11T07:38:03.223Z,1.64
2019-02-11T07:39:03.197Z,1.61
2019-02-11T07:40:03.182Z,1.58
2019-02-11T07:41:03.163Z,1.61
2019-02-11T07:42:04.641Z,1.53
2019-02-11T07:43:03.125Z,1.61
2019-02-11T07:44:03.106Z,1.51
2019-02-11T07:45:03.090Z,1.53
2019-02-11T07:46:03.071Z,1.57
2019-02-11T07:47:03.056Z,1.61
2019-02-11T07:48:03.035Z,1.57
2019-02-11T07:49:03.024Z,1.58
2019-02-11T07:50:03.007Z,1.61
2019-02-11T07:51:02.979Z,1.65
2019-02-11T07:52:02.963Z,1.64
2019-02-11T07:53:02.697Z,1.6
2019-02-11T07:54:02.925Z,1.57
2019-02-11T07:55:02.667Z,1.65
2019-02-11T07:56:02.888Z,1.68
2019-02-11T07:57:02.617Z,1.64
2019-02-11T07:58:02.859Z,1.65
2019-02-11T07:59:02.834Z,1.66
2019-02-11T08:00:02.825Z,1.58
2019-02-11T08:01:02.802Z,1.68
2019-02-11T08:02:02.775Z,1.74
2019-02-11T08:03:02.760Z,1.68
2019-02-11T08:04:02.745Z,1.74
2019-02-11T08:05:02.473Z,1.79
2019-02-11T08:06:02.723Z,1.75
2019-02-11T08:07:02.734Z,1.76
2019-02-11T08:08:02.181Z,1.76
2019-02-11T08:09:02.404Z,1.79
2019-02-11T08:10:02.635Z,1.87
2019-02-11T08:11:02.368Z,1.94
2019-02-11T08:12:02.826Z,1.98
2019-02-11T08:13:02.579Z,2.08
2019-02-11T08:14:02.559Z,2.08
2019-02-11T08:15:02.583Z,2.12
2019-02-11T08:16:02.527Z,2.04
2019-02-11T08:17:02.508Z,2.11
2019-02-11T08:18:03.042Z,2.18
2019-02-11T08:19:02.467Z,2.2
2019-02-11T08:20:02.493Z,2.2
2019-02-11T08:21:02.441Z,2.18
2019-02-11T08:22:02.414Z,2.29
2019-02-11T08:23:10.754Z,2.31
2019-02-11T08:24:02.389Z,2.38
2019-02-11T08:25:02.116Z,2.36
2019-02-11T08:26:02.453Z,2.36
2019-02-11T08:27:02.324Z,2.4
2019-02-11T08:28:02.307Z,2.33
2019-02-11T08:29:02.294Z,2.33
2019-02-11T08:30:02.281Z,2.33
2019-02-11T08:31:02.253Z,2.34
2019-02-11T08:32:02.238Z,2.3
2019-02-11T08:33:02.217Z,2.29
2019-02-11T08:34:02.203Z,2.33
2019-02-11T08:35:02.184Z,2.3
2019-02-11T08:36:02.163Z,2.27
2019-02-11T08:37:01.907Z,2.31
2019-02-11T08:38:02.128Z,2.36
2019-02-11T08:39:02.269Z,2.33
2019-02-11T08:40:02.092Z,2.47
2019-02-11T08:41:02.073Z,2.36
2019-02-11T08:42:02.058Z,2.58
2019-02-11T08:43:02.038Z,2.54
2019-02-11T08:44:03.093Z,2.59
2019-02-11T08:45:02.010Z,2.6
2019-02-11T08:46:02.017Z,2.66
2019-02-11T08:47:01.970Z,2.55
2019-02-11T08:48:01.957Z,2.63
2019-02-11T08:49:02.025Z,2.59
2019-02-11T08:50:01.918Z,2.65
2019-02-11T08:51:01.899Z,2.69
2019-02-11T08:52:01.878Z,2.55
2019-02-11T08:53:01.620Z,2.52
2019-02-11T08:54:01.845Z,2.54
2019-02-11T08:55:01.830Z,2.55
2019-02-11T08:56:03.376Z,2.54
2019-02-11T08:57:02.313Z,2.58
2019-02-11T08:58:01.777Z,2.59
2019-02-11T08:59:01.754Z,2.54
2019-02-11T09:00:01.747Z,2.65
2019-02-11T09:01:01.725Z,2.54
2019-02-11T09:02:01.703Z,2.7
2019-02-11T09:03:01.686Z,2.69
2019-02-11T09:04:01.672Z,2.7
2019-02-11T09:05:01.655Z,2.69
2019-02-11T09:06:01.788Z,2.69
2019-02-11T09:07:01.616Z,2.73
2019-02-11T09:08:03.342Z,2.81
2019-02-11T09:09:01.588Z,2.84
2019-02-11T09:10:01.316Z,2.81
2019-02-11T09:11:01.546Z,2.78
2019-02-11T09:12:01.530Z,2.85
2019-02-11T09:13:01.518Z,2.9
2019-02-11T09:14:01.493Z,2.95
2019-02-11T09:15:01.231Z,2.96
2019-02-11T09:16:01.462Z,3.01
2019-02-11T09:17:01.195Z,3.01
2019-02-11T09:18:01.433Z,3.01
2019-02-11T09:19:01.162Z,2.98
2019-02-11T09:20:01.390Z,2.93
2019-02-11T09:21:01.374Z,3.05
2019-02-11T09:22:09.695Z,2.95
2019-02-11T09:23:01.342Z,3.02
2019-02-11T09:24:01.324Z,3.05
2019-02-11T09:25:01.305Z,3.08
2019-02-11T09:26:01.286Z,3.02
2019-02-11T09:27:01.022Z,3.06
2019-02-11T09:28:01.289Z,3.03
2019-02-11T09:29:01.236Z,2.95
2019-02-11T09:30:00.973Z,3.05
2019-02-11T09:31:01.212Z,3.05
2019-02-11T09:32:01.186Z,2.95
2019-02-11T09:33:00.919Z,2.96
2019-02-11T09:34:01.155Z,2.93
2019-02-11T09:35:01.134Z,2.87
2019-02-11T09:36:01.145Z,2.98
2019-02-11T09:37:01.098Z,2.9
2019-02-11T09:38:01.084Z,2.93
2019-02-11T09:39:01.070Z,2.98
2019-02-11T09:40:01.050Z,3.11
2019-02-11T09:41:01.032Z,3.03
2019-02-11T09:42:01.011Z,3.05
2019-02-11T09:43:01.000Z,3.05
2019-02-11T09:44:01.077Z,3.09
2019-02-11T09:45:00.714Z,3.05
2019-02-11T09:46:08.680Z,3.08
2019-02-11T09:47:00.931Z,3.05
2019-02-11T09:48:00.915Z,3.08
2019-02-11T09:49:00.896Z,3.03
2019-02-11T09:50:00.874Z,3.11
2019-02-11T09:51:00.620Z,3.06
2019-02-11T09:52:00.843Z,3.06
2019-02-11T09:53:00.575Z,2.99
2019-02-11T09:54:00.807Z,3.03
2019-02-11T09:55:00.791Z,3.08
2019-02-11T09:56:00.774Z,3.06
2019-02-11T09:57:00.754Z,3.14
2019-02-11T09:58:00.742Z,3.17
2019-02-11T09:59:00.734Z,3.23
2019-02-11T10:00:00.707Z,3.23
2019-02-11T10:01:00.694Z,3.26
2019-02-11T10:02:00.671Z,3.45
2019-02-11T10:03:00.478Z,3.35
2019-02-11T10:04:00.636Z,3.49
2019-02-11T10:05:00.621Z,3.49
2019-02-11T10:06:00.603Z,3.51
2019-02-11T10:07:00.588Z,3.48
2019-02-11T10:08:00.567Z,3.53
2019-02-11T10:09:00.571Z,3.56
2019-02-11T10:10:00.533Z,3.72
2019-02-11T10:11:00.271Z,3.81
2019-02-11T10:12:00.502Z,3.66
2019-02-11T10:13:00.495Z,3.69
2019-02-11T10:14:00.469Z,3.74
2019-02-11T10:15:00.457Z,3.69
2019-02-11T10:16:00.436Z,3.63
2019-02-11T10:17:00.421Z,3.61
2019-02-11T10:18:00.409Z,3.56
2019-02-11T10:19:00.386Z,3.57
2019-02-11T10:20:00.374Z,3.53
2019-02-11T10:21:00.352Z,3.49
2019-02-11T10:22:00.340Z,3.58
2019-02-11T10:23:00.318Z,3.51
2019-02-11T10:24:00.300Z,3.63
2019-02-11T10:25:00.295Z,3.63
2019-02-11T10:26:00.265Z,3.58
2019-02-11T10:27:00.250Z,3.67
2019-02-11T10:28:00.244Z,3.64
2019-02-11T10:29:00.220Z,3.81
2019-02-11T10:30:00.274Z,3.72
2019-02-11T10:31:00.184Z,3.84
2019-02-11T10:32:00.173Z,3.79
2019-02-11T10:33:00.159Z,3.82
2019-02-11T10:34:00.138Z,3.78
2019-02-11T10:35:00.238Z,3.85
2019-02-11T10:36:00.105Z,3.79
2019-02-11T10:37:00.085Z,3.82
2019-02-11T10:38:00.119Z,3.78
2019-02-11T10:39:00.053Z,3.85
2019-02-11T10:39:59.788Z,3.79
2019-02-11T10:40:59.775Z,3.74
2019-02-11T10:42:00.006Z,3.74
2019-02-11T10:42:59.995Z,3.71
2019-02-11T10:43:59.974Z,3.61
2019-02-11T10:44:59.958Z,3.53
2019-02-11T10:45:59.940Z,3.56
2019-02-11T10:46:59.933Z,3.56
2019-02-11T10:47:59.663Z,3.48
2019-02-11T10:48:59.642Z,3.42
2019-02-11T10:49:59.872Z,3.42
2019-02-11T10:50:59.856Z,3.39
2019-02-11T10:51:59.590Z,3.56
2019-02-11T10:52:59.825Z,3.48
2019-02-11T10:53:59.805Z,3.69
2019-02-11T10:54:59.787Z,3.79
2019-02-11T10:55:59.774Z,3.93
2019-02-11T10:56:59.757Z,3.97
2019-02-11T10:57:59.749Z,4.12
2019-02-11T10:58:59.727Z,4.15
2019-02-11T10:59:59.704Z,4.12
2019-02-11T11:00:59.817Z,4.14
2019-02-11T11:01:59.692Z,4.21
2019-02-11T11:02:59.705Z,4.17
2019-02-11T11:03:59.648Z,4.26
2019-02-11T11:04:59.631Z,4.28
2019-02-11T11:05:59.615Z,4.22
2019-02-11T11:06:59.350Z,4.3
2019-02-11T11:07:59.580Z,4.35
2019-02-11T11:08:59.563Z,4.28
2019-02-11T11:09:59.544Z,4.26
2019-02-11T11:10:59.530Z,4.22
2019-02-11T11:11:59.513Z,4.26
2019-02-11T11:12:59.498Z,4.18
2019-02-11T11:13:59.480Z,4.2
2019-02-11T11:14:59.464Z,4.18
2019-02-11T11:15:59.202Z,4
2019-02-11T11:16:59.185Z,3.97
2019-02-11T11:17:59.417Z,3.97
2019-02-11T11:18:59.398Z,3.97
2019-02-11T11:19:59.385Z,3.79
2019-02-11T11:20:59.125Z,3.76
2019-02-11T11:21:59.101Z,3.72
2019-02-11T11:22:59.338Z,3.72
2019-02-11T11:23:59.321Z,3.75
2019-02-11T11:24:59.306Z,3.71
2019-02-11T11:25:59.293Z,3.63
2019-02-11T11:26:59.271Z,3.64
2019-02-11T11:27:59.256Z,3.51
2019-02-11T11:28:59.238Z,3.69
2019-02-11T11:29:59.266Z,3.58
2019-02-11T11:30:59.203Z,3.63
2019-02-11T11:31:59.237Z,3.6
2019-02-11T11:32:59.263Z,3.42
2019-02-11T11:33:59.163Z,3.56
2019-02-11T11:34:59.141Z,3.57
2019-02-11T11:35:59.119Z,3.45
2019-02-11T11:36:59.107Z,3.48
2019-02-11T11:37:59.091Z,3.51
2019-02-11T11:38:58.826Z,3.53
2019-02-11T11:39:59.062Z,3.56
2019-02-11T11:40:59.039Z,3.53
2019-02-11T11:41:59.022Z,3.53
2019-02-11T11:42:59.159Z,3.61
2019-02-11T11:43:58.987Z,3.6
2019-02-11T11:44:58.993Z,3.61
2019-02-11T11:45:58.957Z,3.56
2019-02-11T11:46:58.688Z,3.64
2019-02-11T11:47:58.920Z,3.6
2019-02-11T11:48:58.904Z,3.54
2019-02-11T11:49:58.890Z,3.53
2019-02-11T11:50:58.872Z,3.51
2019-02-11T11:51:58.857Z,3.6
2019-02-11T11:52:58.894Z,3.53
2019-02-11T11:53:58.826Z,3.53
2019-02-11T11:54:58.808Z,3.46
2019-02-11T11:56:02.064Z,3.51
2019-02-11T11:57:01.845Z,3.45
2019-02-11T11:57:58.826Z,3.48
2019-02-11T11:58:58.801Z,3.4
2019-02-11T11:59:58.788Z,3.42
2019-02-11T12:00:58.578Z,3.4
2019-02-11T12:01:58.565Z,3.43
2019-02-11T12:03:09.056Z,3.39
2019-02-11T12:03:58.439Z,3.34
2019-02-11T12:04:58.683Z,3.34
2019-02-11T12:05:58.641Z,3.42
2019-02-11T12:06:58.677Z,3.43
2019-02-11T12:07:58.688Z,3.53
2019-02-11T12:09:01.765Z,3.48
2019-02-11T12:09:58.595Z,3.51
2019-02-11T12:10:58.582Z,3.48
2019-02-11T12:11:58.576Z,3.54
2019-02-11T12:12:58.540Z,3.56
2019-02-11T12:13:58.548Z,3.57
2019-02-11T12:14:58.513Z,3.53
2019-02-11T12:15:58.543Z,3.56
2019-02-11T12:17:06.277Z,3.61
2019-02-11T12:17:58.460Z,3.56
2019-02-11T12:18:58.449Z,3.57
2019-02-11T12:19:58.418Z,3.57
2019-02-11T12:20:58.159Z,3.64
2019-02-11T12:21:58.147Z,3.71
2019-02-11T12:22:58.356Z,3.76
2019-02-11T12:23:58.343Z,3.75
2019-02-11T12:24:58.335Z,3.79
2019-02-11T12:25:58.327Z,3.78
2019-02-11T12:26:58.304Z,3.85
2019-02-11T12:27:58.273Z,3.9
2019-02-11T12:28:58.252Z,3.89
2019-02-11T12:29:58.271Z,4.07
2019-02-11T12:30:58.775Z,4
2019-02-11T12:31:58.224Z,3.92
2019-02-11T12:33:00.485Z,3.96
2019-02-11T12:33:58.103Z,3.96
2019-02-11T12:34:58.264Z,3.84
2019-02-11T12:35:58.146Z,3.82
2019-02-11T12:36:57.917Z,3.86
2019-02-11T12:37:58.220Z,4
2019-02-11T12:38:58.110Z,3.96
2019-02-11T12:39:58.099Z,3.9
2019-02-11T12:40:57.866Z,3.97
2019-02-11T12:41:58.077Z,3.96
2019-02-11T12:42:58.973Z,3.96
2019-02-11T12:43:58.024Z,3.99
2019-02-11T12:44:58.157Z,3.94
2019-02-11T12:45:57.998Z,3.92
2019-02-11T12:47:15.827Z,4.03
2019-02-11T12:47:58.134Z,3.99
2019-02-11T12:49:01.439Z,3.99
2019-02-11T12:49:57.657Z,4
2019-02-11T12:50:57.952Z,3.96
2019-02-11T12:51:57.910Z,3.99
2019-02-11T12:52:57.932Z,4.02
2019-02-11T12:53:57.851Z,4.07
2019-02-11T12:54:57.851Z,4.03
2019-02-11T12:56:02.058Z,4.08
2019-02-11T12:56:57.790Z,4.08
2019-02-11T12:57:57.805Z,4.07
2019-02-11T12:58:57.859Z,4.15
2019-02-11T12:59:57.767Z,4.11
2019-02-11T13:00:57.753Z,4.08
2019-02-11T13:01:57.468Z,4.22
2019-02-11T13:02:57.729Z,4.17
2019-02-11T13:03:57.690Z,4.15
2019-02-11T13:04:57.691Z,4.26
2019-02-11T13:05:57.728Z,4.24
2019-02-11T13:06:57.686Z,4.24
2019-02-11T13:07:57.671Z,4.17
2019-02-11T13:08:57.673Z,4.12
2019-02-11T13:09:57.594Z,4.04
2019-02-11T13:10:57.346Z,4.04
2019-02-11T13:11:58.300Z,3.96
2019-02-11T13:12:57.543Z,3.94
2019-02-11T13:13:57.547Z,3.96
2019-02-11T13:14:57.571Z,3.85
2019-02-11T13:16:06.846Z,3.81
2019-02-11T13:16:57.475Z,3.86
2019-02-11T13:17:57.896Z,3.81
2019-02-11T13:18:57.444Z,3.79
2019-02-11T13:20:14.560Z,3.79
2019-02-11T13:20:57.417Z,3.66